Time;durP1;ratioP1;P1;durP2;ratioP2;P2;SDS_P1;SDS_P2;PMS_P1;PMS_P2;Temp;Humidity;BMP_temperature;BMP_pressure;BME280_temperature;BME280_humidity;BME280_pressure;Samples;Min_cycle;Max_cycle;Signal;HPM_P1;HPM_P2
2022/05/22 00:01:13;;;;;;;0.57;0.50;;;17.40;53.80;19.50;94040.00;;;;10354566;28;45805;-60
2022/05/22 00:06:33;;;;;;;1.10;0.65;;;17.50;53.80;19.50;94028.00;;;;10354489;28;45884;-60
2022/05/22 00:11:57;;;;;;;0.57;0.52;;;17.40;53.70;19.50;94048.00;;;;10354293;28;45246;-59
2022/05/22 00:17:17;;;;;;;1.00;0.70;;;17.50;53.70;19.50;94035.00;;;;10354330;28;46016;-58
2022/05/22 00:22:38;;;;;;;0.73;0.50;;;17.50;53.70;19.50;94031.00;;;;10353861;28;45194;-61
2022/05/22 00:28:00;;;;;;;0.40;0.40;;;17.50;53.70;19.50;94032.00;;;;10353399;28;45270;-59
2022/05/22 00:33:21;;;;;;;1.95;0.60;;;17.40;53.70;19.50;94042.00;;;;10426418;23;45390;-62
2022/05/22 00:38:41;;;;;;;0.75;0.57;;;17.50;53.70;19.50;94028.00;;;;10393336;28;45218;-61
2022/05/22 00:44:05;;;;;;;0.70;0.70;;;17.40;53.70;19.40;94042.00;;;;10352504;28;45893;-60
2022/05/22 00:49:31;;;;;;;0.60;0.47;;;17.40;53.70;19.40;94036.00;;;;10358174;28;45131;-62
2022/05/22 00:54:57;;;;;;;0.82;0.45;;;17.40;53.60;19.40;94025.00;;;;10359855;28;45176;-62
2022/05/22 01:00:23;;;;;;;0.52;0.50;;;17.40;53.70;19.40;94043.00;;;;10355721;28;45127;-62
2022/05/22 01:05:45;;;;;;;0.85;0.50;;;17.40;53.70;19.40;94043.00;;;;10355967;28;45218;-62
2022/05/22 01:11:11;;;;;;;0.57;0.47;;;17.40;53.60;19.40;94033.00;;;;10358823;28;45300;-60
2022/05/22 01:16:34;;;;;;;2.30;0.53;;;17.40;53.60;19.40;94029.00;;;;10359003;28;45795;-60
2022/05/22 01:22:00;;;;;;;0.47;0.32;;;17.40;53.60;19.40;94020.00;;;;10358755;28;45205;-60
2022/05/22 01:27:22;;;;;;;1.25;0.40;;;17.40;53.60;19.40;94011.00;;;;10358509;28;45317;-60
2022/05/22 01:32:48;;;;;;;0.60;0.50;;;17.40;53.70;19.40;94014.00;;;;10358036;28;45263;-60
2022/05/22 01:38:10;;;;;;;0.50;0.40;;;17.40;53.60;19.40;94020.00;;;;10358127;28;45186;-61
2022/05/22 01:43:31;;;;;;;0.40;0.40;;;17.40;53.60;19.40;94010.00;;;;10358290;28;45170;-62
2022/05/22 01:48:52;;;;;;;0.80;0.43;;;17.40;53.60;19.40;94007.00;;;;10357546;28;45327;-61
2022/05/22 01:54:14;;;;;;;0.77;0.50;;;17.40;53.60;19.40;94015.00;;;;10357568;28;45751;-60
2022/05/22 01:59:35;;;;;;;0.30;0.30;;;17.40;53.50;19.40;93997.00;;;;10356162;28;45183;-61
2022/05/22 02:04:55;;;;;;;0.60;0.60;;;17.40;53.50;19.40;94012.00;;;;10357304;28;45247;-60
2022/05/22 02:10:17;;;;;;;0.70;0.55;;;17.40;53.60;19.40;94000.00;;;;10356960;28;45769;-61
2022/05/22 02:15:38;;;;;;;0.60;0.50;;;17.30;53.50;19.40;93985.00;;;;10356843;28;45119;-60
2022/05/22 02:20:59;;;;;;;0.65;0.43;;;17.30;53.40;19.40;93992.00;;;;10356815;28;45142;-62
2022/05/22 02:26:21;;;;;;;0.60;0.50;;;17.30;53.40;19.40;93976.00;;;;10357452;28;45516;-62
2022/05/22 02:31:41;;;;;;;0.40;0.40;;;17.30;53.40;19.40;93976.00;;;;10356189;28;45201;-60
2022/05/22 02:37:02;;;;;;;0.57;0.47;;;17.30;53.40;19.40;93978.00;;;;10356578;28;45407;-61
2022/05/22 02:42:24;;;;;;;0.50;0.43;;;17.30;53.40;19.40;93980.00;;;;10356299;28;45299;-60
2022/05/22 02:47:44;;;;;;;0.50;0.50;;;17.30;53.40;19.30;93971.00;;;;10356101;28;45189;-60
2022/05/22 02:53:07;;;;;;;0.52;0.50;;;17.30;53.40;19.30;93985.00;;;;10355597;28;45379;-60
2022/05/22 02:58:28;;;;;;;0.57;0.50;;;17.30;53.40;19.30;93966.00;;;;10355632;28;45122;-60
2022/05/22 03:03:49;;;;;;;0.50;0.30;;;17.30;53.30;19.30;93979.00;;;;10355691;28;45182;-62
2022/05/22 03:09:14;;;;;;;0.45;0.45;;;17.30;53.30;19.30;93963.00;;;;10355215;28;45098;-61
2022/05/22 03:14:37;;;;;;;0.88;0.50;;;17.30;53.30;19.30;93960.00;;;;10355533;28;45210;-61
2022/05/22 03:19:59;;;;;;;0.80;0.40;;;17.30;53.30;19.30;93962.00;;;;10353934;28;46315;-62
2022/05/22 03:25:19;;;;;;;0.80;0.50;;;17.30;53.30;19.30;93962.00;;;;10355017;28;45122;-60
2022/05/22 03:30:42;;;;;;;0.70;0.50;;;17.30;53.30;19.30;93949.00;;;;10354626;28;45135;-61
2022/05/22 03:36:03;;;;;;;0.65;0.50;;;17.30;53.30;19.30;93949.00;;;;10354336;28;45674;-60
2022/05/22 03:41:23;;;;;;;0.50;0.40;;;17.30;53.20;19.30;93940.00;;;;10354168;28;45678;-61
2022/05/22 03:46:45;;;;;;;1.38;0.50;;;17.30;53.30;19.30;93938.00;;;;10354128;28;45361;-60
2022/05/22 03:52:07;;;;;;;0.55;0.40;;;17.30;53.20;19.30;93931.00;;;;10353846;28;45266;-61
2022/05/22 03:57:28;;;;;;;0.82;0.32;;;17.30;53.20;19.30;93932.00;;;;10353888;28;45325;-60
2022/05/22 04:02:50;;;;;;;1.10;0.40;;;17.20;53.10;19.30;93910.00;;;;10353800;28;45847;-62
2022/05/22 04:08:11;;;;;;;0.32;0.32;;;17.20;53.10;19.30;93927.00;;;;10353953;28;45331;-62
2022/05/22 04:13:32;;;;;;;0.73;0.40;;;17.30;53.10;19.50;93914.00;;;;10353284;28;45652;-61
2022/05/22 04:18:54;;;;;;;0.35;0.30;;;17.40;52.90;19.50;93923.00;;;;10353097;28;45814;-62
2022/05/22 04:29:53;;;;;;;0.98;0.43;;;17.50;52.60;19.60;93916.00;;;;10352169;28;45206;-61
2022/05/22 04:35:15;;;;;;;0.43;0.30;;;17.50;52.50;19.60;93950.00;;;;10353362;28;45334;-60
2022/05/22 04:40:36;;;;;;;0.50;0.28;;;17.60;52.50;19.60;93925.00;;;;10352593;28;45157;-61
2022/05/22 04:45:58;;;;;;;0.50;0.50;;;17.60;52.40;19.60;93926.00;;;;10351929;28;45131;-62
2022/05/22 04:51:20;;;;;;;0.57;0.40;;;17.60;52.30;19.70;93896.00;;;;10352239;28;45699;-60
2022/05/22 04:56:41;;;;;;;0.73;0.40;;;17.60;52.20;19.70;93906.00;;;;10352145;28;45232;-61
2022/05/22 05:02:02;;;;;;;0.52;0.32;;;17.60;52.20;19.70;93898.00;;;;10352092;28;45221;-61
2022/05/22 05:07:24;;;;;;;0.30;0.30;;;17.60;52.10;19.70;93882.00;;;;10352110;28;45507;-62
2022/05/22 05:12:45;;;;;;;0.88;0.30;;;17.70;52.10;19.70;93894.00;;;;10352667;28;45411;-61
2022/05/22 05:18:05;;;;;;;0.82;0.40;;;17.70;52.10;19.80;93888.00;;;;10351697;28;45210;-60
2022/05/22 05:23:27;;;;;;;0.52;0.28;;;17.70;52.00;19.80;93891.00;;;;10351678;28;45299;-62
2022/05/22 05:28:48;;;;;;;1.05;0.30;;;17.70;52.00;19.80;93912.00;;;;10349961;28;45065;-60
2022/05/22 05:34:08;;;;;;;0.60;0.28;;;17.70;51.90;19.80;93889.00;;;;10354328;28;45865;-60
2022/05/22 05:39:30;;;;;;;0.43;0.30;;;17.70;51.90;19.80;93909.00;;;;10357976;28;45253;-60
2022/05/22 05:44:51;;;;;;;0.40;0.25;;;17.70;51.90;19.80;93889.00;;;;10358269;28;45681;-60
2022/05/22 05:50:13;;;;;;;0.20;0.20;;;17.70;51.80;19.80;93889.00;;;;10355819;28;45233;-61
2022/05/22 05:55:35;;;;;;;0.43;0.30;;;17.80;51.80;19.80;93875.00;;;;10357540;28;45807;-62
2022/05/22 06:00:55;;;;;;;0.30;0.30;;;17.80;51.80;19.80;93888.00;;;;10357504;28;45172;-62
2022/05/22 06:06:16;;;;;;;0.25;0.20;;;17.80;51.70;19.90;93874.00;;;;10356084;28;45262;-60
2022/05/22 06:11:38;;;;;;;0.40;0.30;;;17.80;51.70;19.80;93877.00;;;;10355708;28;45187;-61
2022/05/22 06:16:59;;;;;;;0.30;0.30;;;17.80;51.70;19.80;93890.00;;;;10355362;28;45467;-62
2022/05/22 06:22:19;;;;;;;0.30;0.20;;;17.80;51.60;19.90;93887.00;;;;10355694;28;45333;-60
2022/05/22 06:27:43;;;;;;;0.30;0.22;;;17.80;51.60;19.80;93893.00;;;;10356350;28;45091;-61
2022/05/22 06:33:08;;;;;;;0.35;0.22;;;17.80;51.60;19.90;93889.00;;;;10396806;22;45425;-60
2022/05/22 06:44:09;;;;;;;0.30;0.20;;;17.80;51.60;19.90;93887.00;;;;10343514;28;45153;-59
2022/05/22 06:49:30;;;;;;;0.52;0.15;;;17.80;51.60;19.80;93885.00;;;;10324189;28;45795;-59
2022/05/22 06:54:51;;;;;;;0.68;0.38;;;17.80;51.60;19.80;93890.00;;;;10315769;28;45123;-60
2022/05/22 07:00:18;;;;;;;0.52;0.32;;;17.80;51.60;19.80;93878.00;;;;10315042;28;45184;-59
2022/05/22 07:05:39;;;;;;;0.40;0.28;;;17.80;51.60;19.80;93878.00;;;;10333609;28;45218;-61
2022/05/22 07:16:39;;;;;;;2.05;0.40;;;17.80;51.70;20.00;93884.00;;;;10328191;28;45898;-60
2022/05/22 07:22:00;;;;;;;2.47;0.32;;;17.90;51.60;20.00;93873.00;;;;10354442;28;45853;-60
2022/05/22 07:27:21;;;;;;;1.00;0.40;;;17.90;51.30;20.00;93875.00;;;;10351658;28;45505;-59
2022/05/22 07:32:43;;;;;;;3.50;0.52;;;17.90;51.70;19.90;93885.00;;;;10353500;28;45266;-60
2022/05/22 07:38:05;;;;;;;6.28;1.10;;;17.90;51.60;19.90;93869.00;;;;10354093;28;45206;-60
2022/05/22 07:43:27;;;;;;;8.32;1.00;;;17.90;51.60;20.00;93872.00;;;;10359553;28;45204;-60
2022/05/22 07:48:48;;;;;;;8.05;1.00;;;17.90;51.80;20.00;93865.00;;;;10353216;28;45250;-59
2022/05/22 07:54:09;;;;;;;7.18;1.00;;;17.90;51.70;20.00;93860.00;;;;10353937;28;45124;-59
2022/05/22 07:59:30;;;;;;;9.30;1.02;;;17.90;51.40;20.00;93881.00;;;;10352051;28;45209;-60
2022/05/22 08:04:52;;;;;;;8.30;1.00;;;17.90;51.50;20.00;93866.00;;;;10353740;28;45139;-61
2022/05/22 08:10:14;;;;;;;4.13;0.90;;;17.90;51.60;19.90;93870.00;;;;10352647;28;45251;-60
2022/05/22 08:15:37;;;;;;;3.25;0.60;;;17.90;51.60;20.00;93863.00;;;;10347261;28;45311;-59
2022/05/22 08:21:00;;;;;;;4.35;0.60;;;17.90;51.50;20.00;93868.00;;;;10349627;28;45771;-59
2022/05/22 08:26:20;;;;;;;4.10;0.57;;;17.90;51.50;20.00;93889.00;;;;10349359;28;45072;-59
2022/05/22 08:31:41;;;;;;;2.08;0.50;;;17.90;51.50;20.00;93841.00;;;;10350773;28;45777;-59
2022/05/22 08:37:02;;;;;;;6.15;0.80;;;18.00;51.60;20.00;93840.00;;;;10350562;28;45877;-60
2022/05/22 08:42:34;;;;;;;3.42;0.63;;;17.90;51.90;20.00;93849.00;;;;10348892;28;45281;-62
2022/05/22 08:48:04;;;;;;;3.25;0.57;;;17.90;51.90;20.00;93844.00;;;;10352584;28;45173;-62
2022/05/22 08:53:32;;;;;;;2.60;0.90;;;17.90;52.00;19.90;93828.00;;;;10352798;28;45187;-62
2022/05/22 08:59:03;;;;;;;1.35;0.40;;;17.90;52.10;19.90;93812.00;;;;10352142;28;45877;-62
2022/05/22 09:04:34;;;;;;;2.15;0.50;;;17.80;52.20;19.90;93822.00;;;;10352744;28;45187;-62
2022/05/22 09:10:05;;;;;;;3.75;0.70;;;17.80;52.20;19.80;93835.00;;;;10356881;28;45188;-62
2022/05/22 09:15:37;;;;;;;1.23;0.60;;;17.80;52.30;19.80;93822.00;;;;10358739;28;45210;-62
2022/05/22 09:21:10;;;;;;;5.25;0.85;;;17.80;52.30;19.80;93820.00;;;;10356278;28;45090;-62
2022/05/22 09:26:44;;;;;;;2.65;0.70;;;17.80;52.40;19.80;93825.00;;;;10356191;28;45778;-62
2022/05/22 09:32:32;;;;;;;5.03;0.60;;;17.80;52.40;19.80;93796.00;;;;10357200;28;45245;-62
2022/05/22 09:38:12;;;;;;;3.10;0.80;;;17.80;52.40;19.80;93774.00;;;;10358786;28;45416;-62
2022/05/22 09:44:02;;;;;;;2.13;0.50;;;17.80;52.50;19.80;93777.00;;;;10358414;28;45209;-62
2022/05/22 09:49:42;;;;;;;3.08;0.80;;;17.80;52.50;19.80;93782.00;;;;10358299;28;45869;-62
2022/05/22 09:55:26;;;;;;;3.03;0.75;;;17.80;52.50;19.90;93800.00;;;;10357232;28;45285;-60
2022/05/22 10:00:57;;;;;;;2.05;0.60;;;17.80;52.60;19.90;93795.00;;;;10355049;28;45214;-60
2022/05/22 10:06:31;;;;;;;3.28;0.65;;;17.80;52.40;19.90;93789.00;;;;10357218;28;45196;-60
2022/05/22 10:12:07;;;;;;;3.50;0.70;;;17.80;52.40;19.90;93798.00;;;;10354255;28;45244;-60
2022/05/22 10:17:48;;;;;;;2.30;0.60;;;17.80;52.30;19.90;93789.00;;;;10356923;28;45813;-60
2022/05/22 10:23:46;;;;;;;2.25;0.50;;;17.80;52.20;19.90;93788.00;;;;10356445;28;45164;-60
2022/05/22 10:29:16;;;;;;;1.98;0.73;;;17.80;52.20;19.90;93805.00;;;;10351145;28;45216;-60
2022/05/22 10:34:45;;;;;;;2.90;0.73;;;17.80;52.20;19.90;93803.00;;;;10355573;28;45197;-60
2022/05/22 10:40:08;;;;;;;1.45;0.50;;;17.80;52.20;19.90;93783.00;;;;10353524;28;45229;-60
2022/05/22 10:45:33;;;;;;;1.70;0.55;;;17.80;52.20;19.90;93764.00;;;;10356119;28;45865;-60
2022/05/22 10:51:04;;;;;;;3.40;0.68;;;17.80;52.20;19.90;93751.00;;;;10356492;28;45850;-60
2022/05/22 10:56:28;;;;;;;2.15;0.60;;;17.80;52.10;19.90;93735.00;;;;10355870;28;45210;-60
2022/05/22 11:02:00;;;;;;;2.28;0.50;;;17.80;52.10;19.80;93720.00;;;;10356081;28;45198;-61
2022/05/22 11:07:32;;;;;;;2.00;0.60;;;17.80;52.10;19.80;93727.00;;;;10355629;28;45175;-60
2022/05/22 11:13:03;;;;;;;1.48;0.43;;;17.80;52.00;19.90;93728.00;;;;10355230;28;45110;-60
2022/05/22 11:18:26;;;;;;;2.42;0.60;;;17.80;52.00;19.80;93715.00;;;;10355534;28;45773;-60
2022/05/22 11:24:06;;;;;;;2.25;0.65;;;17.80;51.90;19.80;93715.00;;;;10354962;28;45191;-60
2022/05/22 11:30:00;;;;;;;3.05;0.50;;;17.80;52.00;19.90;93703.00;;;;10353516;28;45251;-60
2022/05/22 11:35:39;;;;;;;1.90;0.45;;;17.80;51.90;19.90;93697.00;;;;10354809;28;45249;-60
2022/05/22 11:41:14;;;;;;;2.45;0.57;;;17.80;51.90;19.80;93694.00;;;;10354387;28;45162;-61
2022/05/22 11:46:52;;;;;;;0.77;0.30;;;17.80;51.90;19.90;93667.00;;;;10354147;28;45111;-61
2022/05/22 11:58:22;;;;;;;1.08;0.43;;;17.80;51.80;19.90;93673.00;;;;10353955;28;45172;-60
2022/05/22 12:04:03;;;;;;;2.40;0.70;;;17.80;51.80;19.90;93653.00;;;;10353342;28;45210;-60
2022/05/22 12:09:38;;;;;;;0.88;0.60;;;17.80;51.70;19.90;93629.00;;;;10353719;28;46021;-60
2022/05/22 12:15:20;;;;;;;3.80;0.60;;;17.80;51.70;19.90;93634.00;;;;10353696;28;45786;-60
2022/05/22 12:20:50;;;;;;;1.55;0.60;;;17.80;51.70;19.90;93630.00;;;;10353454;28;45153;-60
2022/05/22 12:26:13;;;;;;;1.92;0.50;;;17.80;51.60;19.90;93613.00;;;;10353160;28;45885;-60
2022/05/22 12:31:43;;;;;;;1.95;0.30;;;17.80;51.60;19.90;93612.00;;;;10359228;22;45232;-60
2022/05/22 12:37:06;;;;;;;1.30;0.50;;;17.90;51.60;19.90;93608.00;;;;10352581;28;45188;-60
2022/05/22 12:42:32;;;;;;;1.85;0.50;;;17.90;51.60;19.90;93603.00;;;;10330119;28;45159;-60
2022/05/22 12:47:57;;;;;;;0.93;0.40;;;17.90;51.60;19.90;93591.00;;;;10318838;28;45703;-61
2022/05/22 12:53:28;;;;;;;1.75;0.57;;;17.90;51.50;19.90;93592.00;;;;10319060;28;45141;-60
2022/05/22 12:58:56;;;;;;;1.23;0.47;;;17.90;51.50;19.90;93573.00;;;;10318907;28;45219;-60
2022/05/22 13:04:28;;;;;;;1.10;0.50;;;17.90;51.40;20.00;93570.00;;;;10318501;28;45111;-60
2022/05/22 13:09:51;;;;;;;0.80;0.40;;;17.90;51.40;20.00;93562.00;;;;10317929;28;45849;-61
2022/05/22 13:15:16;;;;;;;0.82;0.30;;;18.00;51.40;20.00;93563.00;;;;10318733;28;45142;-61
2022/05/22 13:20:52;;;;;;;1.23;0.38;;;17.90;51.30;20.00;93564.00;;;;10318231;28;45285;-60
2022/05/22 13:26:29;;;;;;;1.27;0.43;;;17.90;51.30;20.00;93569.00;;;;10317561;28;45674;-60
2022/05/22 13:31:55;;;;;;;0.57;0.30;;;17.90;51.30;20.00;93566.00;;;;10313052;28;45266;-60
2022/05/22 13:37:26;;;;;;;0.60;0.20;;;17.90;51.40;19.90;93559.00;;;;10317320;28;45691;-62
2022/05/22 13:43:43;;;;;;;0.82;0.40;;;17.90;51.30;19.90;93555.00;;;;10314836;28;45715;-61
2022/05/22 13:49:36;;;;;;;1.17;0.47;;;17.90;51.30;19.90;93536.00;;;;10318872;28;45237;-62
2022/05/22 13:55:01;;;;;;;0.65;0.35;;;17.90;51.30;20.00;93532.00;;;;10329210;28;45795;-61
2022/05/22 14:00:24;;;;;;;0.70;0.40;;;17.90;51.30;20.00;93520.00;;;;10316881;28;45148;-60
2022/05/22 14:05:52;;;;;;;0.63;0.30;;;17.90;51.30;20.00;93501.00;;;;10317834;28;45117;-60
2022/05/22 14:11:27;;;;;;;0.45;0.30;;;18.00;51.30;20.00;93494.00;;;;10317209;28;45109;-60
2022/05/22 14:16:54;;;;;;;1.20;0.50;;;18.00;51.30;20.00;93516.00;;;;10316917;28;45214;-61
2022/05/22 14:22:17;;;;;;;1.10;0.40;;;17.90;51.20;20.00;93510.00;;;;10317267;28;45246;-61
2022/05/22 14:27:45;;;;;;;1.20;0.40;;;17.90;51.20;20.00;93518.00;;;;10316110;28;45139;-60
2022/05/22 14:33:13;;;;;;;0.60;0.32;;;17.90;51.10;20.00;93495.00;;;;10324391;28;45138;-60
2022/05/22 14:38:37;;;;;;;1.30;0.35;;;18.00;51.20;20.00;93493.00;;;;10317981;28;45293;-61
2022/05/22 14:44:03;;;;;;;0.73;0.28;;;17.90;51.10;20.00;93497.00;;;;10335338;28;45381;-61
2022/05/22 14:49:29;;;;;;;0.30;0.20;;;18.00;51.20;20.00;93488.00;;;;10334249;28;45208;-60
2022/05/22 14:54:54;;;;;;;0.88;0.20;;;18.00;51.20;20.00;93477.00;;;;10336411;28;45250;-61
2022/05/22 15:00:19;;;;;;;0.60;0.30;;;18.00;51.20;20.00;93486.00;;;;10314803;28;45798;-61
2022/05/22 15:05:44;;;;;;;0.75;0.38;;;17.90;51.10;20.00;93494.00;;;;10314669;28;45788;-60
2022/05/22 15:11:14;;;;;;;0.55;0.28;;;17.90;51.10;20.00;93492.00;;;;10328410;28;45843;-61
2022/05/22 15:16:40;;;;;;;0.65;0.30;;;18.00;51.20;20.00;93495.00;;;;10327083;28;45207;-60
2022/05/22 15:25:27;;;;;;;0.50;0.20;;;17.90;51.10;20.00;93493.00;;;;10313202;28;45272;-61
2022/05/22 15:27:59;;;;;;;2.05;0.40;;;18.00;51.10;20.00;93489.00;;;;10280639;28;45259;-60
2022/05/22 15:33:37;;;;;;;1.33;0.20;;;18.00;51.10;20.00;93492.00;;;;10313368;28;45155;-60
2022/05/22 15:39:03;;;;;;;0.85;0.40;;;18.00;51.10;20.10;93497.00;;;;10313756;28;45246;-60
2022/05/22 15:44:32;;;;;;;0.50;0.30;;;18.00;51.00;20.10;93492.00;;;;10331640;28;45230;-60
2022/05/22 15:55:45;;;;;;;0.57;0.20;;;18.00;51.70;20.10;93494.00;;;;10330390;28;45310;-60
2022/05/22 16:01:10;;;;;;;0.47;0.28;;;18.00;50.90;20.10;93503.00;;;;10333289;28;45252;-60
2022/05/22 16:06:32;;;;;;;0.73;0.40;;;18.10;51.10;20.00;93490.00;;;;10332074;28;46103;-61
2022/05/22 16:11:53;;;;;;;0.55;0.45;;;18.00;51.80;20.00;93490.00;;;;10329302;28;45723;-61
2022/05/22 16:17:18;;;;;;;0.93;0.57;;;17.90;51.90;20.00;93509.00;;;;10329728;28;45500;-60
2022/05/22 16:22:41;;;;;;;1.55;0.50;;;17.90;52.00;20.00;93525.00;;;;10330471;28;45223;-61
2022/05/22 16:28:02;;;;;;;0.85;0.52;;;17.90;52.10;19.90;93522.00;;;;10326855;28;45203;-61
2022/05/22 16:33:22;;;;;;;0.50;0.50;;;17.90;52.20;19.90;93506.00;;;;10326662;28;45794;-60
2022/05/22 16:38:44;;;;;;;0.98;0.70;;;17.90;52.40;19.90;93525.00;;;;10331678;28;45776;-60
2022/05/22 16:44:05;;;;;;;0.90;0.63;;;17.80;52.30;19.90;93507.00;;;;10329466;28;45349;-60
2022/05/22 16:55:08;;;;;;;1.20;0.57;;;17.90;52.40;19.90;93488.00;;;;10331144;28;45795;-60
2022/05/22 17:00:28;;;;;;;1.02;0.70;;;17.80;52.40;19.90;93482.00;;;;10331251;28;45298;-60
2022/05/22 17:05:51;;;;;;;1.40;0.70;;;17.80;52.50;19.90;93467.00;;;;10324771;28;45874;-60
2022/05/22 17:11:28;;;;;;;1.83;0.70;;;17.80;52.50;19.80;93439.00;;;;10325227;28;45660;-60
2022/05/22 17:16:50;;;;;;;1.40;0.55;;;17.80;52.50;19.80;93447.00;;;;10321991;28;45786;-62
2022/05/22 17:22:14;;;;;;;1.02;0.60;;;17.80;52.50;19.80;93442.00;;;;10330218;28;45327;-61
2022/05/22 17:27:43;;;;;;;0.77;0.40;;;17.80;52.50;19.80;93400.00;;;;10330477;28;45763;-60
2022/05/22 17:33:05;;;;;;;0.70;0.60;;;17.80;52.50;19.80;93393.00;;;;10333060;28;45414;-59
2022/05/22 17:38:29;;;;;;;1.73;0.60;;;17.80;52.50;19.80;93382.00;;;;10331424;28;45297;-60
2022/05/22 17:43:51;;;;;;;0.55;0.50;;;17.80;52.50;19.80;93379.00;;;;10339947;28;45217;-61
2022/05/22 17:49:13;;;;;;;0.88;0.50;;;17.80;52.60;19.80;93392.00;;;;10334944;28;45779;-60
2022/05/22 17:54:35;;;;;;;0.93;0.50;;;17.80;52.60;19.80;93373.00;;;;10333290;28;45214;-60
2022/05/22 17:59:57;;;;;;;1.17;0.50;;;17.80;52.70;19.90;93376.00;;;;10322281;28;45171;-61
2022/05/22 18:05:18;;;;;;;0.77;0.50;;;17.80;52.50;19.80;93368.00;;;;10333162;28;45812;-61
2022/05/22 18:16:22;;;;;;;0.75;0.40;;;17.70;52.80;19.80;93340.00;;;;10339012;28;45363;-61
2022/05/22 18:21:45;;;;;;;1.10;0.60;;;17.80;52.90;19.80;93360.00;;;;10357599;28;45184;-61
2022/05/22 18:27:06;;;;;;;1.77;0.65;;;17.80;53.00;19.80;93361.00;;;;10357649;28;45231;-63
2022/05/22 18:32:34;;;;;;;1.42;0.80;;;17.70;53.00;19.80;93356.00;;;;10367583;22;45693;-64
2022/05/22 18:37:57;;;;;;;1.63;0.63;;;17.70;53.10;19.70;93366.00;;;;10356170;28;45098;-64
2022/05/22 18:43:18;;;;;;;1.20;0.47;;;17.70;53.30;19.70;93368.00;;;;10395161;28;45104;-64
2022/05/22 18:48:45;;;;;;;0.60;0.57;;;17.70;53.30;19.70;93374.00;;;;10420204;28;45144;-64
2022/05/22 18:54:07;;;;;;;1.33;0.70;;;17.70;53.30;19.70;93381.00;;;;10356784;28;45797;-63
2022/05/22 18:59:27;;;;;;;1.08;0.52;;;17.70;53.30;19.70;93377.00;;;;10356294;28;45996;-63
2022/05/22 19:04:49;;;;;;;0.95;0.50;;;17.70;53.40;19.70;93379.00;;;;10360235;28;45455;-64
2022/05/22 19:10:10;;;;;;;0.73;0.50;;;17.70;53.50;19.70;93362.00;;;;10396431;28;45220;-64
2022/05/22 19:15:31;;;;;;;0.68;0.60;;;17.70;53.80;19.70;93364.00;;;;10396286;28;45210;-64
2022/05/22 19:20:53;;;;;;;1.13;0.57;;;17.70;53.80;19.70;93349.00;;;;10396378;28;45207;-64
2022/05/22 19:26:14;;;;;;;0.88;0.60;;;17.60;54.00;19.70;93358.00;;;;10396627;28;45223;-63
2022/05/22 19:31:39;;;;;;;0.60;0.50;;;17.70;53.80;19.70;93351.00;;;;10395941;28;45686;-63
2022/05/22 19:37:01;;;;;;;1.15;0.70;;;17.60;53.80;19.70;93360.00;;;;10396159;28;45218;-63
2022/05/22 19:48:10;;;;;;;1.27;0.63;;;17.60;53.80;19.60;93362.00;;;;10395431;28;45152;-63
2022/05/22 19:53:32;;;;;;;1.20;0.80;;;17.60;54.40;19.60;93351.00;;;;10397036;28;45279;-63
2022/05/22 19:58:54;;;;;;;1.38;0.85;;;17.60;54.50;19.60;93356.00;;;;10436819;28;45179;-63
2022/05/22 20:04:15;;;;;;;0.82;0.63;;;17.60;54.30;19.60;93350.00;;;;10436155;28;45239;-64
2022/05/22 20:09:39;;;;;;;1.25;0.77;;;17.60;54.60;19.60;93354.00;;;;10436268;28;45198;-64
2022/05/22 20:15:00;;;;;;;1.73;0.82;;;17.60;54.40;19.60;93339.00;;;;10431542;28;45751;-63
2022/05/22 20:20:21;;;;;;;0.98;0.50;;;17.60;54.50;19.60;93324.00;;;;10434910;28;45208;-64
2022/05/22 20:25:47;;;;;;;1.30;0.60;;;17.60;54.30;19.60;93321.00;;;;10436448;28;45228;-64
2022/05/22 20:31:08;;;;;;;1.98;0.70;;;17.60;54.20;19.60;93318.00;;;;10435473;28;45074;-63
2022/05/22 20:36:29;;;;;;;0.73;0.70;;;17.60;54.50;19.60;93324.00;;;;10436233;28;45150;-63
2022/05/22 20:41:52;;;;;;;1.08;0.65;;;17.60;54.60;19.60;93314.00;;;;10436022;28;45425;-63
2022/05/22 20:47:14;;;;;;;0.90;0.60;;;17.60;54.80;19.60;93298.00;;;;10436211;28;45164;-63
2022/05/22 20:52:34;;;;;;;1.42;0.80;;;17.60;54.80;19.60;93313.00;;;;10435814;28;45915;-63
2022/05/22 20:57:57;;;;;;;0.90;0.80;;;17.70;54.70;19.60;93312.00;;;;10434662;28;45252;-64
2022/05/22 21:03:18;;;;;;;0.50;0.50;;;17.60;54.60;19.60;93312.00;;;;10436238;28;45195;-64
2022/05/22 21:08:40;;;;;;;0.85;0.60;;;17.60;54.50;19.60;93308.00;;;;10442536;28;45427;-63
2022/05/22 21:14:02;;;;;;;0.82;0.60;;;17.60;54.20;19.60;93297.00;;;;10442646;28;45209;-63
2022/05/22 21:19:24;;;;;;;0.80;0.63;;;17.60;54.40;19.60;93293.00;;;;10442356;28;45232;-63
2022/05/22 21:30:24;;;;;;;0.88;0.70;;;17.60;54.30;19.60;93294.00;;;;10441166;28;45201;-63
2022/05/22 21:35:46;;;;;;;1.58;0.80;;;17.60;55.00;19.60;93291.00;;;;10441696;28;45114;-63
2022/05/22 21:41:06;;;;;;;1.77;0.70;;;17.60;54.90;19.60;93282.00;;;;10441999;28;45339;-64
2022/05/22 21:46:28;;;;;;;0.90;0.73;;;17.60;54.70;19.60;93293.00;;;;10441074;28;45279;-63
2022/05/22 21:51:49;;;;;;;0.65;0.65;;;17.60;54.90;19.60;93279.00;;;;10441344;28;45196;-63
2022/05/22 21:57:14;;;;;;;1.20;0.80;;;17.60;54.30;19.60;93293.00;;;;10441369;28;45160;-64
2022/05/22 22:02:35;;;;;;;1.00;0.90;;;17.60;54.50;19.60;93288.00;;;;10441128;28;45198;-63
2022/05/22 22:07:56;;;;;;;0.70;0.60;;;17.60;54.50;19.60;93274.00;;;;10440763;28;45172;-63
2022/05/22 22:13:17;;;;;;;0.98;0.70;;;17.50;54.40;19.60;93270.00;;;;10440620;28;45127;-63
2022/05/22 22:18:39;;;;;;;1.02;0.60;;;17.50;54.40;19.50;93284.00;;;;10439295;28;45121;-63
2022/05/22 22:24:00;;;;;;;1.58;0.90;;;17.50;54.50;19.60;93270.00;;;;10440139;28;46193;-63
2022/05/22 22:29:24;;;;;;;1.17;0.77;;;17.50;54.50;19.50;93271.00;;;;10439377;28;45670;-63
2022/05/22 22:34:46;;;;;;;1.30;0.70;;;17.50;54.50;19.50;93259.00;;;;10439772;28;45773;-63
2022/05/22 22:40:10;;;;;;;2.08;0.73;;;17.50;54.50;19.60;93276.00;;;;10439482;28;45743;-63
2022/05/22 22:45:33;;;;;;;1.10;0.70;;;17.50;54.30;19.50;93277.00;;;;10439461;28;45344;-63
2022/05/22 22:50:54;;;;;;;1.73;0.80;;;17.50;54.60;19.50;93267.00;;;;10439656;28;45141;-63
2022/05/22 23:01:54;;;;;;;1.23;0.90;;;17.50;54.50;19.50;93255.00;;;;10438768;28;45285;-63
2022/05/22 23:07:16;;;;;;;1.25;0.70;;;17.50;54.40;19.50;93238.00;;;;10438975;28;45347;-63
2022/05/22 23:12:38;;;;;;;0.88;0.70;;;17.50;54.50;19.50;93253.00;;;;10438541;28;45666;-63
2022/05/22 23:18:02;;;;;;;1.48;0.70;;;17.50;54.50;19.50;93244.00;;;;10438743;28;45136;-63
2022/05/22 23:23:24;;;;;;;0.77;0.70;;;17.50;54.40;19.50;93222.00;;;;10438470;28;45161;-63
2022/05/22 23:28:46;;;;;;;1.00;0.90;;;17.50;54.50;19.50;93200.00;;;;10437482;28;45205;-63
2022/05/22 23:34:08;;;;;;;1.95;0.93;;;17.50;54.50;19.50;93214.00;;;;10437453;28;45678;-63
2022/05/22 23:39:33;;;;;;;1.15;0.80;;;17.50;54.50;19.50;93209.00;;;;10438137;28;45107;-63
2022/05/22 23:44:55;;;;;;;1.67;1.00;;;17.50;54.40;19.50;93209.00;;;;10437743;28;45285;-64
2022/05/22 23:50:16;;;;;;;1.00;0.90;;;17.50;54.50;19.50;93203.00;;;;10437189;28;45185;-63
2022/05/22 23:55:38;;;;;;;0.98;0.70;;;17.50;54.60;19.50;93190.00;;;;10437391;28;45325;-63
